Time;durP1;ratioP1;P1;durP2;ratioP2;P2;SDS_P1;SDS_P2;PMS_P1;PMS_P2;Temp;Humidity;BMP_temperature;BMP_pressure;BME280_temperature;BME280_humidity;BME280_pressure;Samples;Min_cycle;Max_cycle;Signal;HPM_P1;HPM_P2
2023/06/14 00:01:45;;;;;;;2.30;1.60;;;;;;;10.56;100.00;100038.04;104696;1265;67629;-45
2023/06/14 00:04:13;;;;;;;6.50;2.40;;;;;;;10.57;100.00;100037.98;104976;1266;73268;-45
2023/06/14 00:06:41;;;;;;;1.70;1.60;;;;;;;10.59;100.00;100038.98;105164;1266;61734;-45
2023/06/14 00:09:08;;;;;;;4.30;1.40;;;;;;;10.62;100.00;100038.88;104583;1268;59650;-46
2023/06/14 00:11:36;;;;;;;3.30;1.70;;;;;;;10.64;100.00;100039.87;105082;1262;73059;-44
2023/06/14 00:14:03;;;;;;;1.60;1.50;;;;;;;10.62;100.00;100039.58;104955;1257;67519;-45
2023/06/14 00:16:32;;;;;;;2.30;1.80;;;;;;;10.62;100.00;100041.74;104985;1259;71382;-44
2023/06/14 00:19:03;;;;;;;3.00;1.50;;;;;;;10.65;100.00;100045.03;105072;1264;60419;-44
2023/06/14 00:21:31;;;;;;;7.30;1.60;;;;;;;10.67;100.00;100045.65;105346;1257;59878;-44
2023/06/14 00:23:58;;;;;;;4.80;1.50;;;;;;;10.70;100.00;100046.98;105925;1262;72974;-44
2023/06/14 00:26:26;;;;;;;3.10;1.60;;;;;;;10.72;100.00;100044.55;105383;1257;65947;-43
2023/06/14 00:28:54;;;;;;;2.60;1.50;;;;;;;10.68;100.00;100042.94;105411;1257;73066;-42
2023/06/14 00:31:22;;;;;;;2.60;2.10;;;;;;;10.63;100.00;100041.73;105258;1260;61255;-46
2023/06/14 00:33:50;;;;;;;2.00;1.80;;;;;;;10.60;100.00;100044.86;105078;1259;60039;-44
2023/06/14 00:36:17;;;;;;;3.50;2.10;;;;;;;10.61;100.00;100045.92;105038;1258;72978;-45
2023/06/14 00:38:44;;;;;;;6.10;2.20;;;;;;;10.62;100.00;100045.69;105073;1264;66447;-45
2023/06/14 00:41:11;;;;;;;3.80;1.80;;;;;;;10.63;100.00;100041.52;105020;1264;71442;-43
2023/06/14 00:43:41;;;;;;;4.70;1.60;;;;;;;10.61;100.00;100038.90;105023;1260;60552;-45
2023/06/14 00:46:08;;;;;;;2.00;1.50;;;;;;;10.60;100.00;100039.66;105074;1262;59666;-44
2023/06/14 00:48:36;;;;;;;4.70;1.60;;;;;;;10.60;100.00;100042.02;105492;1263;72991;-46
2023/06/14 00:51:03;;;;;;;7.60;2.20;;;;;;;10.61;100.00;100043.04;104905;1258;68106;-46
2023/06/14 00:53:35;;;;;;;4.50;1.40;;;;;;;10.62;100.00;100049.84;105408;1260;71386;-44
2023/06/14 00:56:04;;;;;;;2.80;1.70;;;;;;;10.63;100.00;100048.91;105172;1259;61754;-46
2023/06/14 00:58:32;;;;;;;7.00;1.20;;;;;;;10.63;100.00;100050.29;105153;1262;59798;-44
2023/06/14 01:00:59;;;;;;;6.50;1.50;;;;;;;10.60;100.00;100057.79;105450;1257;73084;-45
2023/06/14 01:03:28;;;;;;;2.20;1.20;;;;;;;10.60;100.00;100061.02;105051;1258;66060;-45
2023/06/14 01:06:14;;;;;;;3.00;2.10;;;;;;;10.61;100.00;100063.87;105720;1256;72653;-45
2023/06/14 01:08:54;;;;;;;2.30;1.50;;;;;;;10.57;100.00;100067.07;105436;1264;61337;-45
2023/06/14 01:11:28;;;;;;;4.10;1.50;;;;;;;10.56;100.00;100066.91;105397;1257;59957;-45
2023/06/14 01:13:55;;;;;;;4.70;2.10;;;;;;;10.56;100.00;100070.86;105400;1264;73076;-44
2023/06/14 01:16:23;;;;;;;2.90;1.60;;;;;;;10.56;100.00;100071.41;105028;1262;66306;-45
2023/06/14 01:18:51;;;;;;;4.90;1.50;;;;;;;10.55;100.00;100062.84;104980;1258;72928;-46
2023/06/14 01:21:25;;;;;;;4.30;2.40;;;;;;;10.54;100.00;100062.73;104973;1264;61772;-45
2023/06/14 01:23:52;;;;;;;2.60;2.00;;;;;;;10.54;100.00;100064.90;105420;1260;60065;-46
2023/06/14 01:26:21;;;;;;;3.90;1.80;;;;;;;10.52;100.00;100061.90;105042;1258;74016;-46
2023/06/14 01:28:49;;;;;;;3.50;1.90;;;;;;;10.49;100.00;100062.22;104930;1258;67765;-45
2023/06/14 01:31:19;;;;;;;5.00;1.80;;;;;;;10.48;100.00;100056.54;105124;1262;71451;-45
2023/06/14 01:33:49;;;;;;;2.10;1.70;;;;;;;10.47;100.00;100058.55;104966;1261;61112;-45
2023/06/14 01:36:19;;;;;;;2.80;1.60;;;;;;;10.43;100.00;100057.84;105631;1262;59612;-45
2023/06/14 01:38:49;;;;;;;3.80;1.70;;;;;;;10.40;100.00;100062.61;105368;1253;73083;-46
2023/06/14 01:41:17;;;;;;;1.80;1.50;;;;;;;10.40;100.00;100060.10;105294;1253;67204;-45
2023/06/14 01:43:45;;;;;;;4.60;1.90;;;;;;;10.42;100.00;100060.91;105348;1260;71387;-46
2023/06/14 01:46:13;;;;;;;3.10;1.50;;;;;;;10.44;100.00;100060.83;105446;1256;60390;-45
2023/06/14 01:48:40;;;;;;;1.70;1.60;;;;;;;10.46;100.00;100064.30;105393;1251;60093;-45
2023/06/14 01:51:07;;;;;;;5.60;2.30;;;;;;;10.47;100.00;100065.34;105456;1253;73514;-45
2023/06/14 01:53:36;;;;;;;5.30;1.50;;;;;;;10.47;100.00;100059.08;105400;1258;67638;-46
2023/06/14 01:56:03;;;;;;;2.30;1.80;;;;;;;10.46;100.00;100057.88;105408;1253;71406;-46
2023/06/14 01:58:31;;;;;;;2.90;1.30;;;;;;;10.42;100.00;100063.05;105375;1256;60369;-46
2023/06/14 02:01:00;;;;;;;1.70;1.30;;;;;;;10.39;100.00;100060.48;105412;1253;60392;-47
2023/06/14 02:03:28;;;;;;;4.40;1.70;;;;;;;10.39;100.00;100059.95;108972;1257;72943;-48
2023/06/14 02:05:55;;;;;;;1.90;1.70;;;;;;;10.42;100.00;100062.70;109035;1253;66577;-47
2023/06/14 02:08:23;;;;;;;3.70;2.30;;;;;;;10.44;100.00;100063.51;109187;1251;73130;-49
2023/06/14 02:10:51;;;;;;;2.10;2.00;;;;;;;10.46;100.00;100062.52;105660;1254;60453;-47
2023/06/14 02:13:21;;;;;;;2.80;1.60;;;;;;;10.46;100.00;100065.42;108898;1259;60091;-49
2023/06/14 02:15:52;;;;;;;5.00;2.00;;;;;;;10.46;100.00;100065.39;107466;1253;74830;-48
2023/06/14 02:18:21;;;;;;;2.50;1.80;;;;;;;10.48;100.00;100064.77;105292;1258;67137;-47
2023/06/14 02:20:48;;;;;;;7.10;1.50;;;;;;;10.48;100.00;100064.05;105154;1256;73085;-47
2023/06/14 02:23:17;;;;;;;1.80;1.40;;;;;;;10.48;100.00;100064.24;108958;1253;61671;-48
2023/06/14 02:25:45;;;;;;;2.40;1.30;;;;;;;10.47;100.00;100061.05;109006;1253;58319;-48
2023/06/14 02:28:13;;;;;;;3.90;1.30;;;;;;;10.48;100.00;100056.71;109010;1253;71649;-48
2023/06/14 02:30:40;;;;;;;3.40;1.90;;;;;;;10.49;100.00;100059.52;105828;1254;67885;-48
2023/06/14 02:33:08;;;;;;;5.20;1.80;;;;;;;10.50;100.00;100065.23;105185;1256;71532;-48
2023/06/14 02:35:37;;;;;;;1.90;1.70;;;;;;;10.50;100.00;100065.24;105249;1253;63063;-47
2023/06/14 02:38:04;;;;;;;2.90;1.60;;;;;;;10.52;100.00;100061.73;105141;1253;59728;-48
2023/06/14 02:40:32;;;;;;;2.60;1.70;;;;;;;10.55;100.00;100062.48;105192;1254;71526;-47
2023/06/14 02:42:59;;;;;;;1.40;1.30;;;;;;;10.58;100.00;100062.02;105216;1254;67362;-46
2023/06/14 02:45:27;;;;;;;1.60;1.40;;;;;;;10.58;100.00;100070.08;105320;1253;73098;-47
2023/06/14 02:47:55;;;;;;;1.60;1.40;;;;;;;10.60;100.00;100078.45;105066;1253;61721;-48
2023/06/14 02:50:23;;;;;;;2.60;2.40;;;;;;;10.63;100.00;100083.36;106085;1253;59940;-48
2023/06/14 02:52:52;;;;;;;2.10;1.40;;;;;;;10.64;100.00;100082.38;105106;1253;71817;-47
2023/06/14 02:55:20;;;;;;;1.70;1.60;;;;;;;10.68;100.00;100079.38;105336;1253;67657;-47
2023/06/14 02:57:48;;;;;;;2.00;1.40;;;;;;;10.72;100.00;100077.55;105083;1260;72431;-47
2023/06/14 03:00:16;;;;;;;9.70;1.60;;;;;;;10.76;100.00;100078.47;105370;1259;61692;-48
2023/06/14 03:02:45;;;;;;;3.20;1.80;;;;;;;10.78;100.00;100084.50;105168;1253;59697;-47
2023/06/14 03:05:14;;;;;;;2.30;1.50;;;;;;;10.81;100.00;100089.36;106030;1257;73751;-48
2023/06/14 03:07:44;;;;;;;2.60;1.50;;;;;;;10.87;100.00;100093.24;106786;1253;66345;-44
2023/06/14 03:10:13;;;;;;;3.40;1.90;;;;;;;10.94;100.00;100090.21;105569;1256;72104;-45
2023/06/14 03:12:42;;;;;;;3.20;2.00;;;;;;;11.02;100.00;100095.44;105748;1253;60888;-46
2023/06/14 03:15:12;;;;;;;3.90;1.80;;;;;;;11.10;100.00;100097.95;105343;1258;59549;-45
2023/06/14 03:17:45;;;;;;;3.40;2.20;;;;;;;11.18;100.00;100092.54;105928;1253;71856;-45
2023/06/14 03:20:14;;;;;;;5.90;2.10;;;;;;;11.25;100.00;100094.00;106169;1253;68019;-46
2023/06/14 03:22:45;;;;;;;4.60;2.50;;;;;;;11.32;100.00;100087.56;105569;1253;72726;-48
2023/06/14 03:25:13;;;;;;;3.60;2.00;;;;;;;11.43;100.00;100088.34;105833;1254;61677;-47
2023/06/14 03:27:41;;;;;;;2.50;2.30;;;;;;;11.55;100.00;100088.49;105584;1254;60005;-46
2023/06/14 03:30:09;;;;;;;3.40;3.20;;;;;;;11.67;100.00;100085.79;105441;1259;72347;-46
2023/06/14 03:32:37;;;;;;;2.10;1.80;;;;;;;11.78;100.00;100081.67;106286;1258;66312;-46
2023/06/14 03:35:05;;;;;;;2.30;2.20;;;;;;;11.90;100.00;100076.79;105438;1259;72454;-44
2023/06/14 03:37:33;;;;;;;4.20;2.20;;;;;;;12.02;100.00;100083.02;105410;1256;61668;-46
2023/06/14 03:40:00;;;;;;;4.00;1.90;;;;;;;12.12;100.00;100082.35;105470;1254;62214;-46
2023/06/14 03:42:30;;;;;;;3.80;2.70;;;;;;;12.24;100.00;100080.11;105996;1254;73837;-46
2023/06/14 03:44:58;;;;;;;3.00;2.50;;;;;;;12.36;100.00;100085.83;105237;1259;67923;-46
2023/06/14 03:47:27;;;;;;;4.40;2.80;;;;;;;12.48;100.00;100087.16;105134;1257;71396;-45
2023/06/14 03:49:55;;;;;;;4.80;1.70;;;;;;;12.61;100.00;100086.20;105741;1254;61097;-45
2023/06/14 03:52:23;;;;;;;4.40;1.80;;;;;;;12.71;100.00;100082.60;105515;1259;60541;-46
2023/06/14 03:54:51;;;;;;;4.40;1.70;;;;;;;12.81;100.00;100082.75;105596;1254;73808;-45
2023/06/14 03:57:23;;;;;;;1.60;1.50;;;;;;;12.92;100.00;100078.09;105378;1259;67850;-45
2023/06/14 03:59:50;;;;;;;3.10;2.10;;;;;;;13.01;100.00;100076.14;104864;1260;72338;-46
2023/06/14 04:02:19;;;;;;;5.70;2.20;;;;;;;13.09;100.00;100083.46;104979;1254;60720;-46
2023/06/14 04:04:48;;;;;;;1.50;1.30;;;;;;;13.17;100.00;100084.11;105880;1259;60421;-46
2023/06/14 04:07:19;;;;;;;3.20;2.00;;;;;;;13.25;100.00;100085.31;104949;1259;73878;-44
2023/06/14 04:09:46;;;;;;;2.20;2.00;;;;;;;13.36;100.00;100082.77;105170;1258;67552;-45
2023/06/14 04:12:13;;;;;;;4.10;1.90;;;;;;;13.45;100.00;100079.73;105424;1256;72713;-45
2023/06/14 04:14:41;;;;;;;3.40;1.80;;;;;;;13.53;100.00;100075.30;105304;1254;61636;-45
2023/06/14 04:17:09;;;;;;;2.40;1.90;;;;;;;13.62;100.00;100074.80;106476;1255;60444;-47
2023/06/14 04:19:37;;;;;;;4.60;1.90;;;;;;;13.71;100.00;100074.88;104809;1259;73778;-47
2023/06/14 04:22:05;;;;;;;2.90;2.20;;;;;;;13.78;100.00;100067.97;105270;1253;67600;-46
2023/06/14 04:24:34;;;;;;;1.80;1.70;;;;;;;13.85;100.00;100069.95;105335;1258;72692;-46
2023/06/14 04:27:02;;;;;;;2.10;1.90;;;;;;;13.92;100.00;100067.18;105334;1253;60578;-47
2023/06/14 04:29:31;;;;;;;3.10;2.20;;;;;;;14.00;100.00;100062.04;105414;1252;60494;-47
2023/06/14 04:32:09;;;;;;;3.50;2.00;;;;;;;14.08;100.00;100053.77;105538;1253;73825;-45
2023/06/14 04:34:39;;;;;;;3.40;1.90;;;;;;;14.16;100.00;100053.10;105734;1258;66667;-46
2023/06/14 04:37:07;;;;;;;4.70;2.00;;;;;;;14.25;100.00;100049.73;105333;1256;73364;-46
2023/06/14 04:39:37;;;;;;;2.10;1.90;;;;;;;14.32;100.00;100042.96;105526;1254;60696;-46
2023/06/14 04:42:07;;;;;;;3.10;1.80;;;;;;;14.40;100.00;100041.09;105160;1259;60645;-46
2023/06/14 04:44:35;;;;;;;2.20;1.60;;;;;;;14.50;100.00;100038.34;108905;1253;73913;-48
2023/06/14 04:47:04;;;;;;;1.60;1.50;;;;;;;14.58;100.00;100038.39;108842;1253;68738;-48
2023/06/14 04:49:32;;;;;;;8.10;1.90;;;;;;;14.66;100.00;100035.52;108809;1260;71523;-46
2023/06/14 04:52:01;;;;;;;5.90;1.10;;;;;;;14.75;100.00;100033.02;108891;1253;61734;-46
2023/06/14 04:54:37;;;;;;;1.40;1.30;;;;;;;14.84;100.00;100028.86;108826;1255;59930;-46
2023/06/14 04:57:17;;;;;;;3.60;1.30;;;;;;;14.93;100.00;100026.09;108846;1251;73818;-46
2023/06/14 04:59:45;;;;;;;2.90;1.00;;;;;;;15.05;100.00;100024.63;108814;1252;67619;-47
2023/06/14 05:02:13;;;;;;;2.60;0.90;;;;;;;15.16;100.00;100017.08;108925;1253;71213;-46
2023/06/14 05:04:41;;;;;;;4.30;1.20;;;;;;;15.26;100.00;100011.59;108983;1253;60481;-49
2023/06/14 05:07:09;;;;;;;6.60;1.10;;;;;;;15.35;100.00;100006.83;107081;1257;59248;-47
2023/06/14 05:09:36;;;;;;;2.50;1.40;;;;;;;15.46;100.00;100006.30;108678;1253;73823;-46
2023/06/14 05:12:04;;;;;;;2.90;1.20;;;;;;;15.55;100.00;100001.61;108892;1251;67194;-47
2023/06/14 05:14:32;;;;;;;1.90;1.10;;;;;;;15.62;100.00;99999.30;108782;1258;71675;-47
2023/06/14 05:16:59;;;;;;;1.30;0.80;;;;;;;15.70;100.00;99992.30;108714;1253;62253;-46
2023/06/14 05:19:27;;;;;;;2.70;1.10;;;;;;;15.79;100.00;99990.98;108690;1253;61911;-47
2023/06/14 05:21:54;;;;;;;3.40;1.10;;;;;;;15.87;100.00;99991.13;108964;1253;72817;-47
2023/06/14 05:24:22;;;;;;;5.40;1.50;;;;;;;15.96;100.00;99990.40;108767;1257;68069;-47
2023/06/14 05:26:49;;;;;;;1.20;1.00;;;;;;;16.06;100.00;99988.29;107383;1256;73407;-48
2023/06/14 05:29:17;;;;;;;5.50;1.00;;;;;;;16.13;100.00;99979.98;104886;1253;60502;-51
2023/06/14 05:31:44;;;;;;;4.90;1.00;;;;;;;16.20;100.00;99978.07;104595;1253;60284;-47
2023/06/14 05:34:11;;;;;;;1.80;1.10;;;;;;;16.25;100.00;99975.34;108873;1253;76198;-49
2023/06/14 05:36:39;;;;;;;2.20;0.90;;;;;;;16.34;100.00;99975.52;107637;1257;68356;-48
2023/06/14 05:39:06;;;;;;;1.80;1.20;;;;;;;16.40;100.00;99971.41;105208;1258;72691;-48
2023/06/14 05:41:34;;;;;;;3.10;1.00;;;;;;;16.47;100.00;99970.61;105502;1259;60464;-47
2023/06/14 05:44:01;;;;;;;1.80;0.90;;;;;;;16.54;100.00;99973.77;105444;1253;61186;-48
2023/06/14 05:46:28;;;;;;;3.50;0.90;;;;;;;16.60;100.00;99968.61;105366;1259;74405;-46
2023/06/14 05:48:56;;;;;;;1.80;1.00;;;;;;;16.67;100.00;99968.52;108035;1258;67656;-48
2023/06/14 05:51:24;;;;;;;3.40;1.00;;;;;;;16.72;100.00;99965.65;105271;1254;72468;-48
2023/06/14 05:53:52;;;;;;;2.70;1.20;;;;;;;16.77;100.00;99963.42;105536;1253;60883;-47
2023/06/14 05:56:20;;;;;;;2.00;0.90;;;;;;;16.83;100.00;99963.20;105372;1258;60537;-47
2023/06/14 05:58:47;;;;;;;3.00;1.00;;;;;;;16.91;100.00;99959.59;105070;1253;72574;-47
2023/06/14 06:01:15;;;;;;;9.80;1.40;;;;;;;16.98;100.00;99956.11;105377;1258;69001;-46
2023/06/14 06:03:45;;;;;;;1.70;0.90;;;;;;;17.07;100.00;99955.32;105517;1258;73673;-47
2023/06/14 06:06:13;;;;;;;1.50;0.80;;;;;;;17.14;100.00;99950.83;105453;1256;61670;-48
2023/06/14 06:08:41;;;;;;;5.00;1.10;;;;;;;17.21;100.00;99948.14;106334;1253;60539;-48
2023/06/14 06:11:08;;;;;;;1.40;0.90;;;;;;;17.27;100.00;99946.77;106103;1253;73754;-48
2023/06/14 06:13:36;;;;;;;1.30;0.90;;;;;;;17.34;100.00;99941.89;105270;1258;66457;-47
2023/06/14 06:16:03;;;;;;;3.60;0.80;;;;;;;17.42;100.00;99940.27;105394;1256;72951;-47
2023/06/14 06:18:30;;;;;;;2.50;0.70;;;;;;;17.52;100.00;99943.45;105578;1256;60429;-46
2023/06/14 06:20:58;;;;;;;2.20;1.00;;;;;;;17.63;100.00;99943.04;105525;1257;61155;-48
2023/06/14 06:23:25;;;;;;;2.70;0.80;;;;;;;17.71;100.00;99936.48;105318;1253;73844;-48
2023/06/14 06:25:53;;;;;;;2.20;0.80;;;;;;;17.78;100.00;99935.04;105270;1253;67686;-46
2023/06/14 06:28:20;;;;;;;0.80;0.70;;;;;;;17.84;100.00;99930.42;105626;1258;70741;-47
2023/06/14 06:30:47;;;;;;;1.80;0.90;;;;;;;17.87;100.00;99930.90;105186;1253;60494;-48
2023/06/14 06:33:15;;;;;;;2.10;0.70;;;;;;;17.92;100.00;99928.39;104940;1258;60955;-47
2023/06/14 06:35:42;;;;;;;1.30;0.70;;;;;;;17.98;100.00;99929.30;104921;1259;72322;-46
2023/06/14 06:38:10;;;;;;;3.20;1.00;;;;;;;18.03;100.00;99921.52;105437;1253;67675;-48
2023/06/14 06:40:37;;;;;;;2.40;0.80;;;;;;;18.08;100.00;99922.55;105531;1254;72612;-48
2023/06/14 06:43:04;;;;;;;1.10;0.70;;;;;;;18.13;100.00;99919.64;105510;1259;60432;-47
2023/06/14 06:45:40;;;;;;;0.80;0.70;;;;;;;18.18;100.00;99909.48;105984;1256;60581;-46
2023/06/14 06:48:09;;;;;;;2.70;0.80;;;;;;;18.24;100.00;99898.11;105389;1259;73887;-47
2023/06/14 06:50:36;;;;;;;2.00;0.80;;;;;;;18.32;100.00;99892.58;105509;1257;67967;-47
2023/06/14 06:53:05;;;;;;;1.70;0.70;;;;;;;18.37;100.00;99885.87;105392;1256;72503;-47
2023/06/14 06:55:32;;;;;;;1.70;0.60;;;;;;;18.41;100.00;99884.95;105640;1257;61603;-47
2023/06/14 06:58:00;;;;;;;3.90;0.80;;;;;;;18.47;100.00;99881.38;105373;1253;60432;-48
2023/06/14 07:00:27;;;;;;;0.90;0.80;;;;;;;18.54;100.00;99875.91;105456;1253;73860;-49
2023/06/14 07:02:55;;;;;;;3.00;0.70;;;;;;;18.62;100.00;99871.52;105456;1258;66611;-48
2023/06/14 07:05:23;;;;;;;2.40;0.70;;;;;;;18.70;100.00;99865.77;105415;1258;72705;-48
2023/06/14 07:07:50;;;;;;;2.40;0.70;;;;;;;18.78;100.00;99870.20;106836;1253;60432;-47
2023/06/14 07:10:18;;;;;;;1.60;0.70;;;;;;;18.84;100.00;99869.54;105231;1258;61276;-48
2023/06/14 07:12:46;;;;;;;4.40;0.80;;;;;;;18.87;100.00;99865.27;105262;1253;73838;-48
2023/06/14 07:15:13;;;;;;;1.40;0.80;;;;;;;18.89;100.00;99858.24;105321;1258;66271;-48
2023/06/14 07:17:42;;;;;;;3.90;1.10;;;;;;;18.94;100.00;99854.56;105571;1257;72462;-48
2023/06/14 07:20:13;;;;;;;4.40;0.80;;;;;;;19.03;100.00;99847.44;105401;1258;60397;-49
2023/06/14 07:22:41;;;;;;;0.80;0.70;;;;;;;19.13;100.00;99852.44;106736;1258;60516;-48
2023/06/14 07:25:14;;;;;;;1.30;0.90;;;;;;;19.24;100.00;99852.10;105491;1253;72544;-48
2023/06/14 07:27:43;;;;;;;1.40;0.80;;;;;;;19.33;100.00;99848.27;105385;1260;66035;-47
2023/06/14 07:30:11;;;;;;;2.30;0.70;;;;;;;19.39;100.00;99845.35;105059;1258;70296;-49
2023/06/14 07:32:38;;;;;;;1.10;0.80;;;;;;;19.43;100.00;99843.04;105280;1258;60535;-49
2023/06/14 07:35:06;;;;;;;0.90;0.70;;;;;;;19.48;100.00;99844.66;104778;1253;60400;-49
2023/06/14 07:37:34;;;;;;;0.90;0.60;;;;;;;19.52;100.00;99837.39;105030;1258;73799;-48
2023/06/14 07:40:06;;;;;;;2.20;0.60;;;;;;;19.59;100.00;99840.27;105249;1258;67769;-48
2023/06/14 07:42:35;;;;;;;1.30;0.80;;;;;;;19.68;100.00;99834.95;105433;1255;72760;-49
2023/06/14 07:45:03;;;;;;;4.20;1.10;;;;;;;19.73;100.00;99835.45;108934;1253;60454;-50
2023/06/14 07:47:31;;;;;;;1.30;0.70;;;;;;;19.77;100.00;99834.17;108950;1253;58972;-51
2023/06/14 07:49:59;;;;;;;4.50;0.70;;;;;;;19.82;100.00;99834.16;109126;1251;73844;-50
2023/06/14 07:52:26;;;;;;;1.10;0.90;;;;;;;19.86;100.00;99831.58;109065;1253;67925;-49
2023/06/14 07:54:53;;;;;;;0.80;0.70;;;;;;;19.92;100.00;99828.67;108984;1253;72689;-48
2023/06/14 07:57:21;;;;;;;2.40;0.80;;;;;;;19.99;100.00;99829.75;109069;1253;60086;-48
2023/06/14 07:59:48;;;;;;;1.10;0.60;;;;;;;20.05;100.00;99825.06;108865;1252;58858;-48
2023/06/14 08:02:15;;;;;;;2.30;0.70;;;;;;;20.13;100.00;99817.27;109179;1256;74257;-48
2023/06/14 08:04:43;;;;;;;2.80;0.80;;;;;;;20.24;100.00;99822.41;109021;1253;66431;-48
2023/06/14 08:07:10;;;;;;;3.40;1.00;;;;;;;20.32;100.00;99823.92;109087;1253;72700;-48
2023/06/14 08:09:38;;;;;;;3.60;0.70;;;;;;;20.36;100.00;99828.50;108987;1253;58866;-48
2023/06/14 08:12:07;;;;;;;2.90;0.70;;;;;;;20.43;100.00;99828.48;108980;1253;61691;-48
2023/06/14 08:14:34;;;;;;;1.30;0.70;;;;;;;20.51;100.00;99828.14;109026;1257;73857;-49
2023/06/14 08:17:02;;;;;;;1.70;0.80;;;;;;;20.58;100.00;99829.33;109156;1253;69371;-49
2023/06/14 08:19:29;;;;;;;3.00;0.70;;;;;;;20.67;100.00;99827.45;108885;1253;71460;-49
2023/06/14 08:21:57;;;;;;;5.00;0.80;;;;;;;20.74;100.00;99820.23;108965;1253;60213;-49
2023/06/14 08:24:24;;;;;;;1.40;0.80;;;;;;;20.77;100.00;99815.39;108952;1257;59173;-48
2023/06/14 08:26:56;;;;;;;4.70;0.70;;;;;;;20.83;100.00;99815.60;109019;1254;73020;-48
2023/06/14 08:29:23;;;;;;;2.90;0.80;;;;;;;20.91;100.00;99816.48;109049;1254;66288;-49
2023/06/14 08:31:50;;;;;;;1.90;0.80;;;;;;;20.98;100.00;99813.73;106251;1254;71431;-49
2023/06/14 08:34:18;;;;;;;2.90;0.70;;;;;;;21.01;100.00;99813.60;105609;1254;60649;-49
2023/06/14 08:36:45;;;;;;;0.80;0.70;;;;;;;21.04;100.00;99813.29;105888;1256;60537;-48
2023/06/14 08:39:13;;;;;;;6.20;0.70;;;;;;;21.07;100.00;99812.45;105423;1260;73901;-50
2023/06/14 08:41:40;;;;;;;2.50;0.60;;;;;;;21.10;100.00;99810.92;105584;1259;67898;-48
2023/06/14 08:44:08;;;;;;;1.00;0.60;;;;;;;21.18;100.00;99809.90;105318;1260;70459;-48
2023/06/14 08:46:35;;;;;;;4.50;0.70;;;;;;;21.28;100.00;99812.99;105401;1254;60626;-48
2023/06/14 08:49:04;;;;;;;3.80;0.70;;;;;;;21.39;100.00;99818.84;106477;1254;59614;-49
2023/06/14 08:51:36;;;;;;;2.90;0.50;;;;;;;21.44;100.00;99815.91;105425;1253;74628;-48
2023/06/14 08:54:04;;;;;;;0.80;0.70;;;;;;;21.46;100.00;99813.09;105996;1254;65842;-48
2023/06/14 08:56:33;;;;;;;5.70;0.70;;;;;;;21.55;100.00;99809.36;105523;1263;71452;-49
2023/06/14 08:59:03;;;;;;;3.20;0.70;;;;;;;21.62;100.00;99805.58;105308;1259;60488;-46
2023/06/14 09:01:34;;;;;;;1.80;1.10;;;;;;;21.69;100.00;99802.98;105379;1252;60482;-48
2023/06/14 09:04:02;;;;;;;0.80;0.60;;;;;;;21.77;100.00;99804.39;106663;1254;73765;-49
2023/06/14 09:06:29;;;;;;;3.40;0.60;;;;;;;21.85;100.00;99800.90;106195;1258;67856;-49
2023/06/14 09:08:57;;;;;;;4.00;1.00;;;;;;;21.92;100.00;99802.80;106012;1258;72824;-49
2023/06/14 09:11:26;;;;;;;0.90;0.70;;;;;;;21.96;100.00;99798.81;106118;1256;60385;-49
2023/06/14 09:13:53;;;;;;;1.10;0.70;;;;;;;21.94;100.00;99802.23;107746;1258;60892;-50
2023/06/14 09:16:21;;;;;;;2.90;0.70;;;;;;;21.89;100.00;99796.50;105671;1257;73356;-50
2023/06/14 09:18:49;;;;;;;2.30;1.10;;;;;;;21.84;100.00;99788.39;105265;1257;68416;-48
2023/06/14 09:21:17;;;;;;;3.00;0.70;;;;;;;21.81;100.00;99783.88;105175;1259;72704;-49
2023/06/14 09:23:45;;;;;;;3.30;0.80;;;;;;;21.85;100.00;99782.44;105633;1258;60456;-49
2023/06/14 09:26:19;;;;;;;1.30;0.70;;;;;;;21.89;100.00;99780.91;105820;1256;60398;-49
2023/06/14 09:28:48;;;;;;;3.40;0.60;;;;;;;21.93;100.00;99776.77;105723;1259;73893;-50
2023/06/14 09:31:17;;;;;;;3.40;0.70;;;;;;;21.99;100.00;99779.66;105285;1258;66803;-49
2023/06/14 09:33:48;;;;;;;7.70;1.10;;;;;;;22.10;100.00;99777.28;105740;1264;74482;-49
2023/06/14 09:36:23;;;;;;;4.60;0.70;;;;;;;22.24;100.00;99772.70;105701;1258;60508;-49
2023/06/14 09:39:04;;;;;;;0.80;0.80;;;;;;;22.34;100.00;99774.11;105367;1259;60520;-49
2023/06/14 09:41:39;;;;;;;2.30;0.70;;;;;;;22.45;100.00;99771.20;105446;1259;73904;-50
2023/06/14 09:44:07;;;;;;;3.40;1.10;;;;;;;22.54;100.00;99770.14;106700;1255;66971;-49
2023/06/14 09:46:38;;;;;;;1.60;0.80;;;;;;;22.65;100.00;99771.63;105557;1259;72115;-48
2023/06/14 09:49:07;;;;;;;1.40;0.70;;;;;;;22.73;100.00;99775.91;105245;1259;60572;-48
2023/06/14 09:51:36;;;;;;;2.50;0.80;;;;;;;22.75;100.00;99775.95;104984;1260;60339;-50
2023/06/14 09:54:04;;;;;;;3.10;0.80;;;;;;;22.71;100.00;99773.08;105139;1254;72549;-50
2023/06/14 09:56:34;;;;;;;5.90;0.80;;;;;;;22.61;100.00;99774.15;105239;1254;66964;-49
2023/06/14 09:59:04;;;;;;;3.20;1.00;;;;;;;22.56;100.00;99768.04;105846;1260;72703;-49
2023/06/14 10:01:35;;;;;;;2.10;1.30;;;;;;;22.53;100.00;99769.83;105485;1254;62081;-49
2023/06/14 10:04:04;;;;;;;3.80;1.10;;;;;;;22.52;100.00;99765.62;105744;1259;60442;-49
2023/06/14 10:06:39;;;;;;;2.60;2.00;;;;;;;22.52;100.00;99763.34;105793;1259;72576;-50
2023/06/14 10:09:07;;;;;;;6.20;2.70;;;;;;;22.52;100.00;99756.23;105668;1258;66778;-49
2023/06/14 10:11:35;;;;;;;2.60;1.20;;;;;;;22.52;100.00;99757.16;105221;1257;71854;-48
2023/06/14 10:14:05;;;;;;;2.90;1.20;;;;;;;22.56;100.00;99757.69;105377;1259;60413;-49
2023/06/14 10:16:39;;;;;;;2.60;0.70;;;;;;;22.62;100.00;99759.11;105411;1254;60534;-46
2023/06/14 10:19:10;;;;;;;1.80;0.80;;;;;;;22.63;100.00;99758.95;105535;1260;73819;-48
2023/06/14 10:22:22;;;;;;;4.50;3.10;;;;;;;22.64;100.00;99756.29;105300;1260;66580;-50
2023/06/14 10:24:50;;;;;;;2.30;0.90;;;;;;;22.68;100.00;99758.88;105257;1251;72839;-49
2023/06/14 10:27:23;;;;;;;3.70;0.90;;;;;;;22.71;100.00;99754.02;106028;1258;60788;-48
2023/06/14 10:29:53;;;;;;;4.70;0.90;;;;;;;22.73;100.00;99751.25;105282;1260;60634;-50
2023/06/14 10:32:23;;;;;;;2.10;0.80;;;;;;;22.75;100.00;99746.11;105002;1251;73883;-49
2023/06/14 10:34:57;;;;;;;1.50;1.40;;;;;;;22.82;100.00;99746.20;105717;1253;67875;-49
2023/06/14 10:37:24;;;;;;;1.50;0.90;;;;;;;22.88;100.00;99743.50;105733;1260;71778;-50
2023/06/14 10:39:53;;;;;;;4.10;0.80;;;;;;;22.97;100.00;99741.76;105422;1254;60431;-49
2023/06/14 10:42:22;;;;;;;4.00;0.80;;;;;;;23.06;100.00;99745.60;109016;1254;59185;-50
2023/06/14 10:44:51;;;;;;;6.70;2.50;;;;;;;23.14;100.00;99742.65;109246;1256;73870;-50
2023/06/14 10:47:26;;;;;;;3.50;2.10;;;;;;;23.19;100.00;99748.61;109094;1254;66868;-51
2023/06/14 10:50:07;;;;;;;1.20;1.00;;;;;;;23.22;100.00;99747.26;108988;1258;73112;-51
2023/06/14 10:52:38;;;;;;;1.50;0.80;;;;;;;23.19;100.00;99748.99;109102;1254;60063;-51
2023/06/14 10:55:17;;;;;;;31.60;26.60;;;;;;;23.14;100.00;99749.17;109013;1251;59418;-51
2023/06/14 10:57:55;;;;;;;4.00;2.40;;;;;;;23.10;100.00;99744.86;109144;1253;73864;-51
2023/06/14 11:00:26;;;;;;;8.80;8.00;;;;;;;23.07;100.00;99745.49;108897;1254;67905;-51
2023/06/14 11:03:07;;;;;;;7.80;6.70;;;;;;;23.04;100.00;99744.85;109026;1256;70835;-51
2023/06/14 11:05:55;;;;;;;1.50;0.90;;;;;;;23.05;100.00;99742.92;106791;1256;60520;-50
2023/06/14 11:08:59;;;;;;;2.80;0.80;;;;;;;23.09;100.00;99739.60;105136;1258;61411;-51
2023/06/14 11:11:31;;;;;;;2.90;1.00;;;;;;;23.15;100.00;99739.60;105305;1260;74354;-49
2023/06/14 11:13:59;;;;;;;2.40;0.80;;;;;;;23.19;100.00;99733.30;105310;1253;67628;-49
2023/06/14 11:16:27;;;;;;;2.50;1.30;;;;;;;23.16;100.00;99737.18;105223;1257;73463;-50
2023/06/14 11:18:55;;;;;;;6.80;1.30;;;;;;;23.12;100.00;99734.34;105376;1254;60483;-49
2023/06/14 11:21:25;;;;;;;1.50;0.80;;;;;;;23.13;100.00;99728.02;105491;1256;60896;-48
2023/06/14 11:23:53;;;;;;;5.00;0.90;;;;;;;23.15;100.00;99729.44;108867;1253;72809;-51